Plymouth, New Hampshire
Current Conditions -  °F | °C
As of 1:35 PM on Sunday 21 Dec 2014 (Local Time) from K1P1 Reporting Station
Unknown Precip Unknown Precip  
Wind Chill: 31°   Ceiling: 3200
Heat Index: 31°   Visibility: 7mi
Dew Point: 27°   Wind: 0mph
Humidity: 87%   Direction: NA
Pressure: 30.3"   Gusts: NA
Location:  43.76°N, 71.69°W
Report Text: K1P1 211835Z AUTO 00000KT 7SM UP SCT019 BKN032 OVC043 M01/M03 A3030 RMK AO2 T10071026
Loading
Personal Weather Stations






























Interactive Weather Map New forecast layout! Learn more

10-Day Weather Forecast

Advertisements
Track Severe Weather on mobile